PAGINA EN CONSTRUCCIÓN

DISCULPEN POSIBLES FALLOS



Daganzo more information Daganzo


Meteosat more information blitzortung!


Radar lluvias  rain snow radar


Visita nuestra red de sitios de meteo:

Documentation for the template used

MeteoibericaRed estaciones Meteorologicas



Sin Advertencias climatologicas .En este momento tenemos Nivel Verde.    No hay Alarmas

Pagina Historial Weather Underground texto

Diario Resumen January 21, 2019 Unidades:  Métrico    impérial   Tanto
« Anterior Dia
Siguiente Dia »
Diario Semana Mensual Anual Personalizada
  Actual: Alto: Baja: Media:
Temperatura: -15.7 °C -17.8 °C -16.1 °C -15.4 °C
Punto de rocío: -16.7 °C -17.8 °C -16.9 °C -16.6 °C
Humedad: 88 % Humidity % 81 % 85 %
Velocidad del Viento: 41.2 km/h 0 km/h 32.8 km/h 48.1 km/h
Ráfagas de viento: 31.4 km/h 0 km/h - -
Viento:NW - - SE
Pression baro: 34439 hPa 0 hPa 34411.9 hPa -
Précipitaciones: 0 mm      
Historical Graphs
 
 
Datos de tabla para January 21, 2019
Tiempo Temperatura Punto de rocío Pression baro Viento Velocidad del Viento Ráfagas de viento Humedad Las precipitaciones Rate ( Hora )
-17.8 °C -17.8 °C 0 hPa Calm     Humidity % 0 mm
00:01 -15.4 °C -16.4 °C 34422.1 hPa North 35.7 km/h 27.7 km/h 88 % 0 mm
00:06 -15.3 °C -16.4 °C 34422.1 hPa NW 41.7 km/h 29.5 km/h 87 % 0 mm
00:11 -15.4 °C -16.5 °C 34422.1 hPa NW 35.7 km/h 27.7 km/h 87 % 0 mm
00:16 -15.4 °C -16.4 °C 34422.1 hPa North 35.7 km/h 27.7 km/h 88 % 0 mm
00:21 -15.3 °C -16.4 °C 34425.5 hPa North 35.7 km/h 25.4 km/h 87 % 0 mm
00:26 -15.3 °C -16.5 °C 34428.8 hPa North 39.4 km/h 29.5 km/h 86 % 0 mm
00:31 -15.3 °C -16.5 °C 34428.8 hPa North 38.8 km/h 27.7 km/h 86 % 0 mm
00:36 -15.2 °C -16.4 °C 34428.8 hPa NW 44.7 km/h 35.4 km/h 85 % 0 mm
00:41 -15 °C -16.5 °C 34428.8 hPa WNW 50.7 km/h 41.2 km/h 83 % 0 mm
00:46 -15.1 °C -16.4 °C 34425.5 hPa North 50.7 km/h 41.2 km/h 84 % 0 mm
00:51 -14.9 °C -16.5 °C 34425.5 hPa NW 53.6 km/h 41.2 km/h 82 % 0 mm
00:56 -14.9 °C -16.5 °C 34425.5 hPa North 47.6 km/h 37.5 km/h 82 % 0 mm
01:01 -14.9 °C -16.5 °C 34428.8 hPa North 53.6 km/h 41.2 km/h 82 % 0 mm
01:06 -14.9 °C -16.4 °C 34428.8 hPa North 53.6 km/h 41.2 km/h 83 % 0 mm
01:11 -14.9 °C -16.4 °C 34428.8 hPa NW 56.6 km/h 45.4 km/h 82 % 0 mm
01:16 -14.9 °C -16.4 °C 34428.8 hPa NW 53.6 km/h 43.5 km/h 83 % 0 mm
01:21 -15.1 °C -16.5 °C 34425.5 hPa North 53.6 km/h 43.5 km/h 84 % 0 mm
01:26 -15.1 °C -16.4 °C 34418.7 hPa WNW 53.6 km/h 47.6 km/h 85 % 0 mm
01:31 -15.2 °C -16.4 °C 34425.5 hPa WNW 53.6 km/h 47.6 km/h 85 % 0 mm
01:36 -15.1 °C -16.4 °C 34415.3 hPa WNW 55.2 km/h 47.6 km/h 84 % 0 mm
01:41 -15.2 °C -16.4 °C 34411.9 hPa NW 53.6 km/h 45.4 km/h 85 % 0 mm
01:46 -15.3 °C -16.5 °C 34415.3 hPa NW 53.6 km/h 43.5 km/h 86 % 0 mm
01:51 -15.1 °C -16.4 °C 34418.7 hPa North 67.3 km/h 47.6 km/h 84 % 0 mm
01:56 -14.9 °C -16.4 °C 34422.1 hPa North 63.2 km/h 47.6 km/h 83 % 0 mm
02:01 -14.9 °C -16.5 °C 34418.7 hPa NW 68.6 km/h 43.5 km/h 82 % 0 mm
02:06 -15.2 °C -16.6 °C 34422.1 hPa North 50.7 km/h 39.4 km/h 84 % 0 mm
02:11 -15.3 °C -16.5 °C 34422.1 hPa North 44.7 km/h 35.4 km/h 86 % 0 mm
02:16 -15.6 °C -16.6 °C 34422.1 hPa NW 38.8 km/h 33.6 km/h 88 % 0 mm
02:21 -15.6 °C -16.5 °C 34418.7 hPa NW 37.5 km/h 31.4 km/h 89 % 0 mm
02:26 -15.6 °C -16.6 °C 34418.7 hPa NW 38.8 km/h 31.4 km/h 87 % 0 mm
02:31 -15.4 °C -16.7 °C 34418.7 hPa WNW 50.7 km/h 41.2 km/h 85 % 0 mm
02:36 -15.3 °C -16.8 °C 34415.3 hPa NW 50.7 km/h 39.4 km/h 83 % 0 mm
02:41 -15.3 °C -16.8 °C 34415.3 hPa NW 50.7 km/h 37.5 km/h 83 % 0 mm
02:46 -15.3 °C -16.8 °C 34415.3 hPa NW 49.2 km/h 37.5 km/h 83 % 0 mm
02:51 -15.3 °C -16.8 °C 34418.7 hPa NW 53.6 km/h 39.4 km/h 83 % 0 mm
02:56 -15.3 °C -16.8 °C 34411.9 hPa NW 50.7 km/h 39.4 km/h 82 % 0 mm
03:01 -15.3 °C -16.8 °C 34411.9 hPa NW 47.6 km/h 35.4 km/h 83 % 0 mm
03:06 -15.4 °C -16.8 °C 34418.7 hPa NW 45.4 km/h 35.4 km/h 83 % 0 mm
03:11 -15.6 °C -16.9 °C 34422.1 hPa NW 38.8 km/h 31.4 km/h 84 % 0 mm
03:16 -15.6 °C -16.9 °C 34422.1 hPa North 41.7 km/h 33.6 km/h 85 % 0 mm
03:21 -15.5 °C -16.9 °C 34422.1 hPa North 44.7 km/h 31.4 km/h 84 % 0 mm
03:26 -15.5 °C -16.9 °C 34428.8 hPa North 41.7 km/h 25.4 km/h 84 % 0 mm
03:31 -15.6 °C -16.8 °C 34425.5 hPa North 35.4 km/h 27.7 km/h 85 % 0 mm
03:36 -15.6 °C -16.8 °C 34422.1 hPa WNW 45.4 km/h 31.4 km/h 85 % 0 mm
03:41 -15.6 °C -16.8 °C 34422.1 hPa North 51 km/h 39.4 km/h 85 % 0 mm
03:46 -15.5 °C -16.8 °C 34418.7 hPa NW 57.5 km/h 45.4 km/h 85 % 0 mm
03:51 -15.1 °C -16.6 °C 34415.3 hPa WNW 86.4 km/h 60.8 km/h 83 % 0 mm
03:56 -15.1 °C -16.7 °C 34415.3 hPa NNW 68.9 km/h 53.3 km/h 82 % 0 mm
04:01 -14.9 °C -16.6 °C 34418.7 hPa North 82.9 km/h 68.9 km/h 81 % 0 mm
04:06 -15 °C -16.6 °C 34418.7 hPa North 74.5 km/h 57.5 km/h 82 % 0 mm
04:11 -15.1 °C -16.6 °C 34422.1 hPa North 74.5 km/h 55.2 km/h 83 % 0 mm
04:16 -15.2 °C -16.6 °C 34422.1 hPa North 65 km/h 49.2 km/h 84 % 0 mm
04:21 -15.3 °C -16.6 °C 34428.8 hPa North 53.6 km/h 37.5 km/h 85 % 0 mm
04:26 -15.3 °C -16.6 °C 34425.5 hPa WNW 63.2 km/h 51 km/h 85 % 0 mm
04:31 -15.2 °C -16.5 °C 34428.8 hPa North 68.6 km/h 43.5 km/h 85 % 0 mm
04:36 -15.3 °C -16.5 °C 34428.8 hPa North 62.6 km/h 41.2 km/h 86 % 0 mm
04:41 -15.4 °C -16.4 °C 34432.2 hPa North 50.7 km/h 35.4 km/h 88 % 0 mm
04:46 -15.5 °C -16.5 °C 34428.8 hPa North 50.7 km/h 35.4 km/h 88 % 0 mm
04:51 -15.6 °C -16.6 °C 34432.2 hPa North 44.7 km/h 35.4 km/h 88 % 0 mm
04:56 -15.6 °C -16.5 °C 34428.8 hPa North 38.8 km/h 27.7 km/h 89 % 0 mm
05:01 -15.6 °C -16.6 °C 34432.2 hPa North 44.7 km/h 29.5 km/h 88 % 0 mm
05:06 -15.5 °C -16.6 °C 34428.8 hPa NW 45.4 km/h 31.4 km/h 87 % 0 mm
05:11 -15.4 °C -16.6 °C 34425.5 hPa North 47.6 km/h 31.4 km/h 86 % 0 mm
05:16 -15.5 °C -16.7 °C 34428.8 hPa North 44.7 km/h 31.4 km/h 86 % 0 mm
05:21 -15.6 °C -16.6 °C 34422.1 hPa North 41.7 km/h 27.7 km/h 87 % 0 mm
05:26 -15.5 °C -16.5 °C 34422.1 hPa North 53.3 km/h 47.6 km/h 88 % 0 mm
05:31 -15.6 °C -16.6 °C 34422.1 hPa North 51 km/h 35.4 km/h 88 % 0 mm
05:36 -15.7 °C -16.6 °C 34422.1 hPa North 38.8 km/h 31.4 km/h 89 % 0 mm
05:41 -15.7 °C -16.6 °C 34425.5 hPa North 38.8 km/h 27.7 km/h 90 % 0 mm
05:46 -15.8 °C -16.8 °C 34432.2 hPa North 33.6 km/h 27.7 km/h 89 % 0 mm
05:51 -15.8 °C -16.8 °C 34428.8 hPa North 35.7 km/h 29.5 km/h 89 % 0 mm
05:56 -15.9 °C -16.7 °C 34432.2 hPa North 35.7 km/h 29.5 km/h 90 % 0 mm
06:01 -16 °C -16.7 °C 34428.8 hPa NW 38.8 km/h 31.4 km/h 92 % 0 mm
06:06 -16.1 °C -16.7 °C 34428.8 hPa North 35.7 km/h 31.4 km/h 92 % 0 mm
06:11 -16.1 °C -16.7 °C 34428.8 hPa North 37.5 km/h 31.4 km/h 92 % 0 mm
06:16 -15.9 °C -16.6 °C 34428.8 hPa North 38.8 km/h 31.4 km/h 92 % 0 mm
06:21 -15.9 °C -16.7 °C 34425.5 hPa NW 41.7 km/h 35.4 km/h 90 % 0 mm
06:26 -15.6 °C -16.6 °C 34428.8 hPa NW 50.7 km/h 37.5 km/h 87 % 0 mm
06:31 -15.5 °C -16.8 °C 34432.2 hPa NW 44.7 km/h 35.4 km/h 85 % 0 mm
06:36 -15.6 °C -16.8 °C 34432.2 hPa NW 32.8 km/h 21.6 km/h 86 % 0 mm
06:41 -15.8 °C -16.8 °C 34432.2 hPa North 33.6 km/h 27.7 km/h 89 % 0 mm
06:46 -15.7 °C -16.7 °C 34435.6 hPa North 44.7 km/h 25.4 km/h 88 % 0 mm
06:51 -15.4 °C -16.6 °C 34432.2 hPa North 56.6 km/h 37.5 km/h 86 % 0 mm
06:56 -15.4 °C -16.7 °C 34439 hPa North 50.7 km/h 37.5 km/h 85 % 0 mm
07:01 -15.4 °C -16.7 °C 34439 hPa North 44.7 km/h 37.5 km/h 85 % 0 mm
07:06 -15.3 °C -16.6 °C 34442.4 hPa WNW 45.4 km/h 39.4 km/h 85 % 0 mm
07:11 -15.7 °C -16.8 °C 34439 hPa NW 35.7 km/h 25.4 km/h 87 % 0 mm
07:16 -15.7 °C -16.7 °C 34439 hPa NW 41.2 km/h 31.4 km/h 88 % 0 mm
meteodaganzo
Elogios de Weather Underground - 1.75 mb

Guión original por  Jim McMurry - jmcmurry@mwt.net Adaptado para la plantilla por  Wim van der Kuil - Leuven-Template.eu

Usted encontrará nuestra información del tiempo también en:

WeatherCloud

Weather Underground

Iberian Peninsula Weather Network

AWEKAS

Citizen Weather Observer Program (CWOP)